TAX14DS LPMA-LPPT
Flight info
| Callsign | TAX14DS |
|---|---|
| Flight time | N/A |
| Altitude | 36000 |
| Route | DEGUN DCT NARTA DCT ESUTI |
| Aircraft | A320/M-SDE3FGHIRWY/LB1 |
Departure
| Time | N/A |
|---|---|
| Airport | Cristiano Ronaldo International Airport (LPMA) |
Arrival
| Time | 2026-05-03 20:30 |
|---|---|
| Airport | Lisbon Humberto Delgado Airport (LPPT) |
| Time | Latitude | Longitude | Altitude | Speed | Heading |
|---|---|---|---|---|---|
| 2026-05-03 20:15 | 38.07911 | -10.08246 | 18466 ft | 370 kts | 49° |
| 2026-05-03 20:15 | 38.09484 | -10.05688 | 17728 ft | 365 kts | 49° |
| 2026-05-03 20:15 | 38.11038 | -10.03161 | 17043 ft | 360 kts | 49° |
| 2026-05-03 20:15 | 38.12558 | -10.00687 | 16536 ft | 350 kts | 49° |
| 2026-05-03 20:16 | 38.14023 | -9.98294 | 16128 ft | 338 kts | 49° |
| 2026-05-03 20:16 | 38.15446 | -9.95968 | 15724 ft | 328 kts | 49° |
| 2026-05-03 20:16 | 38.16832 | -9.93701 | 15330 ft | 319 kts | 49° |
| 2026-05-03 20:16 | 38.18182 | -9.91490 | 14946 ft | 316 kts | 49° |
| 2026-05-03 20:17 | 38.19524 | -9.89290 | 14561 ft | 314 kts | 49° |
| 2026-05-03 20:17 | 38.20850 | -9.87122 | 14187 ft | 316 kts | 49° |
| 2026-05-03 20:17 | 38.22207 | -9.84911 | 13791 ft | 318 kts | 49° |
| 2026-05-03 20:17 | 38.23568 | -9.82686 | 13372 ft | 319 kts | 50° |
| 2026-05-03 20:18 | 38.24929 | -9.80457 | 12991 ft | 320 kts | 50° |
| 2026-05-03 20:18 | 38.26271 | -9.78257 | 12593 ft | 320 kts | 50° |
| 2026-05-03 20:18 | 38.27647 | -9.76000 | 12195 ft | 320 kts | 50° |
| 2026-05-03 20:18 | 38.29014 | -9.73759 | 11799 ft | 321 kts | 50° |
| 2026-05-03 20:19 | 38.30376 | -9.71515 | 11407 ft | 321 kts | 50° |
| 2026-05-03 20:19 | 38.31738 | -9.69269 | 11013 ft | 321 kts | 50° |
| 2026-05-03 20:19 | 38.33101 | -9.67019 | 10613 ft | 321 kts | 50° |
| 2026-05-03 20:19 | 38.34465 | -9.64771 | 10216 ft | 321 kts | 50° |
| 2026-05-03 20:20 | 38.35825 | -9.62527 | 9922 ft | 317 kts | 50° |
| 2026-05-03 20:20 | 38.37154 | -9.60332 | 9691 ft | 310 kts | 50° |
| 2026-05-03 20:20 | 38.38469 | -9.58160 | 9320 ft | 309 kts | 50° |
| 2026-05-03 20:20 | 38.39773 | -9.56002 | 8887 ft | 304 kts | 50° |
| 2026-05-03 20:21 | 38.41058 | -9.53876 | 8282 ft | 300 kts | 50° |
| 2026-05-03 20:21 | 38.42304 | -9.51817 | 8016 ft | 285 kts | 50° |
| 2026-05-03 20:21 | 38.43495 | -9.49846 | 7660 ft | 276 kts | 50° |
| 2026-05-03 20:21 | 38.44648 | -9.47938 | 7315 ft | 267 kts | 50° |
| 2026-05-03 20:22 | 38.45768 | -9.46085 | 6967 ft | 260 kts | 50° |
| 2026-05-03 20:22 | 38.46860 | -9.44277 | 6624 ft | 256 kts | 50° |
| 2026-05-03 20:22 | 38.47952 | -9.42470 | 6312 ft | 256 kts | 50° |
| 2026-05-03 20:22 | 38.49035 | -9.40675 | 6047 ft | 254 kts | 50° |
| 2026-05-03 20:23 | 38.50092 | -9.38920 | 5799 ft | 252 kts | 50° |
| 2026-05-03 20:23 | 38.51154 | -9.37152 | 5549 ft | 249 kts | 50° |
| 2026-05-03 20:23 | 38.52202 | -9.35409 | 5331 ft | 247 kts | 50° |
| 2026-05-03 20:23 | 38.53242 | -9.33680 | 5109 ft | 244 kts | 50° |
| 2026-05-03 20:24 | 38.54276 | -9.31960 | 4882 ft | 244 kts | 50° |
| 2026-05-03 20:24 | 38.55305 | -9.30244 | 4650 ft | 242 kts | 50° |
| 2026-05-03 20:24 | 38.56316 | -9.28552 | 4417 ft | 237 kts | 50° |
| 2026-05-03 20:24 | 38.57306 | -9.26897 | 4176 ft | 230 kts | 49° |
| 2026-05-03 20:25 | 38.58246 | -9.25323 | 4025 ft | 214 kts | 49° |
| 2026-05-03 20:25 | 38.59176 | -9.23943 | 3971 ft | 199 kts | 36° |
| 2026-05-03 20:25 | 38.60338 | -9.23076 | 3793 ft | 191 kts | 18° |
| 2026-05-03 20:25 | 38.61564 | -9.22428 | 3579 ft | 189 kts | 18° |
| 2026-05-03 20:26 | 38.62758 | -9.21794 | 3328 ft | 183 kts | 18° |
| 2026-05-03 20:26 | 38.63918 | -9.21177 | 3078 ft | 178 kts | 18° |
| 2026-05-03 20:26 | 38.65044 | -9.20577 | 2832 ft | 172 kts | 18° |
| 2026-05-03 20:26 | 38.66118 | -9.20004 | 2612 ft | 160 kts | 19° |
| 2026-05-03 20:27 | 38.67091 | -9.19484 | 2403 ft | 145 kts | 17° |
| 2026-05-03 20:27 | 38.67990 | -9.19005 | 2208 ft | 137 kts | 18° |
| 2026-05-03 20:27 | 38.68862 | -9.18542 | 2016 ft | 135 kts | 17° |
| 2026-05-03 20:27 | 38.69724 | -9.18083 | 1840 ft | 133 kts | 17° |
| 2026-05-03 20:28 | 38.70578 | -9.17630 | 1645 ft | 133 kts | 18° |
| 2026-05-03 20:28 | 38.71417 | -9.17176 | 1437 ft | 133 kts | 18° |
| 2026-05-03 20:28 | 38.72268 | -9.16704 | 1304 ft | 134 kts | 17° |
| 2026-05-03 20:28 | 38.73137 | -9.16253 | 1164 ft | 135 kts | 18° |
| 2026-05-03 20:29 | 38.73996 | -9.15792 | 934 ft | 132 kts | 17° |
| 2026-05-03 20:29 | 38.74854 | -9.15329 | 739 ft | 137 kts | 20° |
| 2026-05-03 20:29 | 38.75739 | -9.14858 | 575 ft | 138 kts | 17° |
| 2026-05-03 20:29 | 38.76641 | -9.14385 | 406 ft | 141 kts | 19° |
| 2026-05-03 20:30 | 38.77516 | -9.13925 | 363 ft | 122 kts | 22° |
| 2026-05-03 20:30 | 38.78110 | -9.13605 | 367 ft | 47 kts | 23° |
| 2026-05-03 20:30 | 38.78341 | -9.13396 | 364 ft | 29 kts | 49° |
| 2026-05-03 20:30 | 38.78341 | -9.13267 | 360 ft | 17 kts | 163° |
| 2026-05-03 20:31 | 38.78222 | -9.13315 | 360 ft | 20 kts | 204° |
| 2026-05-03 20:31 | 38.78080 | -9.13391 | 358 ft | 24 kts | 202° |
| 2026-05-03 20:31 | 38.77910 | -9.13388 | 356 ft | 27 kts | 169° |
| 2026-05-03 20:31 | 38.77741 | -9.13342 | 344 ft | 22 kts | 165° |
| 2026-05-03 20:32 | 38.77596 | -9.13321 | 337 ft | 17 kts | 175° |
| 2026-05-03 20:32 | 38.77481 | -9.13295 | 334 ft | 14 kts | 166° |
| 2026-05-03 20:32 | 38.77376 | -9.13267 | 336 ft | 17 kts | 172° |
| 2026-05-03 20:32 | 38.77252 | -9.13241 | 338 ft | 19 kts | 168° |
| 2026-05-03 20:33 | 38.77110 | -9.13202 | 338 ft | 22 kts | 168° |
| 2026-05-03 20:33 | 38.77023 | -9.13176 | 338 ft | 8 kts | 153° |
| 2026-05-03 20:33 | 38.77022 | -9.13121 | 333 ft | 3 kts | 78° |
| 2026-05-03 20:33 | 38.77026 | -9.13097 | 337 ft | 2 kts | 78° |
| 2026-05-03 20:34 | 38.77027 | -9.13089 | 336 ft | 0 kts | 78° |